sensor_id;sensor_type;location;lat;lon;timestamp;P1;durP1;ratioP1;P2;durP2;ratioP2
25045;SDS011;13044;49.304;12.840;2022-12-11T00:00:25;15.60;;;9.48;;
25045;SDS011;13044;49.304;12.840;2022-12-11T00:02:52;19.65;;;10.68;;
25045;SDS011;13044;49.304;12.840;2022-12-11T00:05:19;18.33;;;10.13;;
25045;SDS011;13044;49.304;12.840;2022-12-11T00:07:46;15.13;;;8.98;;
25045;SDS011;13044;49.304;12.840;2022-12-11T00:10:12;19.05;;;10.20;;
25045;SDS011;13044;49.304;12.840;2022-12-11T00:12:39;18.08;;;10.13;;
25045;SDS011;13044;49.304;12.840;2022-12-11T00:15:06;19.25;;;10.95;;
25045;SDS011;13044;49.304;12.840;2022-12-11T00:17:34;17.05;;;10.35;;
25045;SDS011;13044;49.304;12.840;2022-12-11T00:20:01;17.88;;;9.60;;
25045;SDS011;13044;49.304;12.840;2022-12-11T00:22:30;15.20;;;8.63;;
25045;SDS011;13044;49.304;12.840;2022-12-11T00:24:57;15.32;;;9.13;;
25045;SDS011;13044;49.304;12.840;2022-12-11T00:27:24;14.48;;;7.85;;
25045;SDS011;13044;49.304;12.840;2022-12-11T00:29:50;18.17;;;10.02;;
25045;SDS011;13044;49.304;12.840;2022-12-11T00:32:17;10.25;;;7.03;;
25045;SDS011;13044;49.304;12.840;2022-12-11T00:34:44;15.13;;;8.90;;
25045;SDS011;13044;49.304;12.840;2022-12-11T00:37:11;10.45;;;6.95;;
25045;SDS011;13044;49.304;12.840;2022-12-11T00:39:38;17.13;;;9.35;;
25045;SDS011;13044;49.304;12.840;2022-12-11T00:42:07;16.65;;;7.78;;
25045;SDS011;13044;49.304;12.840;2022-12-11T00:44:34;10.38;;;6.13;;
25045;SDS011;13044;49.304;12.840;2022-12-11T00:47:01;15.18;;;7.63;;
25045;SDS011;13044;49.304;12.840;2022-12-11T00:49:28;14.35;;;7.40;;
25045;SDS011;13044;49.304;12.840;2022-12-11T00:51:55;10.32;;;6.13;;
25045;SDS011;13044;49.304;12.840;2022-12-11T00:54:22;14.05;;;7.07;;
25045;SDS011;13044;49.304;12.840;2022-12-11T00:56:49;11.05;;;6.50;;
25045;SDS011;13044;49.304;12.840;2022-12-11T00:59:15;12.02;;;6.68;;
25045;SDS011;13044;49.304;12.840;2022-12-11T01:01:42;12.80;;;6.05;;
25045;SDS011;13044;49.304;12.840;2022-12-11T01:04:09;10.93;;;6.65;;
25045;SDS011;13044;49.304;12.840;2022-12-11T01:06:36;11.32;;;6.70;;
25045;SDS011;13044;49.304;12.840;2022-12-11T01:09:04;9.48;;;6.18;;
25045;SDS011;13044;49.304;12.840;2022-12-11T01:11:50;11.98;;;6.72;;
25045;SDS011;13044;49.304;12.840;2022-12-11T01:14:17;11.32;;;5.72;;
25045;SDS011;13044;49.304;12.840;2022-12-11T01:16:44;10.63;;;6.00;;
25045;SDS011;13044;49.304;12.840;2022-12-11T01:19:11;7.70;;;4.80;;
25045;SDS011;13044;49.304;12.840;2022-12-11T01:21:38;9.45;;;5.53;;
25045;SDS011;13044;49.304;12.840;2022-12-11T01:24:04;10.43;;;6.38;;
25045;SDS011;13044;49.304;12.840;2022-12-11T01:26:31;12.63;;;7.38;;
25045;SDS011;13044;49.304;12.840;2022-12-11T01:28:58;13.43;;;7.97;;
25045;SDS011;13044;49.304;12.840;2022-12-11T01:31:25;10.77;;;6.30;;
25045;SDS011;13044;49.304;12.840;2022-12-11T01:33:53;10.35;;;5.85;;
25045;SDS011;13044;49.304;12.840;2022-12-11T01:36:21;10.65;;;6.05;;
25045;SDS011;13044;49.304;12.840;2022-12-11T01:38:48;11.55;;;6.68;;
25045;SDS011;13044;49.304;12.840;2022-12-11T01:41:16;9.98;;;5.55;;
25045;SDS011;13044;49.304;12.840;2022-12-11T01:46:27;6.82;;;4.28;;
25045;SDS011;13044;49.304;12.840;2022-12-11T01:48:55;8.60;;;5.20;;
25045;SDS011;13044;49.304;12.840;2022-12-11T01:51:24;12.68;;;7.00;;
25045;SDS011;13044;49.304;12.840;2022-12-11T01:53:59;10.55;;;4.97;;
25045;SDS011;13044;49.304;12.840;2022-12-11T01:56:31;7.45;;;4.20;;
25045;SDS011;13044;49.304;12.840;2022-12-11T01:59:02;8.32;;;4.30;;
25045;SDS011;13044;49.304;12.840;2022-12-11T02:01:37;13.18;;;7.85;;
25045;SDS011;13044;49.304;12.840;2022-12-11T02:04:10;9.25;;;5.70;;
25045;SDS011;13044;49.304;12.840;2022-12-11T02:06:39;13.55;;;7.72;;
25045;SDS011;13044;49.304;12.840;2022-12-11T02:13:10;13.02;;;7.68;;
25045;SDS011;13044;49.304;12.840;2022-12-11T02:15:48;13.93;;;8.07;;
25045;SDS011;13044;49.304;12.840;2022-12-11T02:18:36;14.95;;;8.63;;
25045;SDS011;13044;49.304;12.840;2022-12-11T02:26:36;10.52;;;6.13;;
25045;SDS011;13044;49.304;12.840;2022-12-11T02:29:50;9.95;;;6.15;;
25045;SDS011;13044;49.304;12.840;2022-12-11T02:35:08;7.85;;;5.13;;
25045;SDS011;13044;49.304;12.840;2022-12-11T02:37:48;14.15;;;8.40;;
25045;SDS011;13044;49.304;12.840;2022-12-11T02:40:23;10.57;;;6.68;;
25045;SDS011;13044;49.304;12.840;2022-12-11T02:42:55;10.52;;;6.80;;
25045;SDS011;13044;49.304;12.840;2022-12-11T02:45:25;12.35;;;7.28;;
25045;SDS011;13044;49.304;12.840;2022-12-11T02:47:53;10.13;;;5.57;;
25045;SDS011;13044;49.304;12.840;2022-12-11T02:50:23;11.43;;;7.07;;
25045;SDS011;13044;49.304;12.840;2022-12-11T02:52:52;14.52;;;8.60;;
25045;SDS011;13044;49.304;12.840;2022-12-11T02:55:22;14.23;;;8.15;;
25045;SDS011;13044;49.304;12.840;2022-12-11T03:00:30;13.85;;;8.25;;
25045;SDS011;13044;49.304;12.840;2022-12-11T03:02:57;13.77;;;8.50;;
25045;SDS011;13044;49.304;12.840;2022-12-11T03:05:24;11.15;;;7.13;;
25045;SDS011;13044;49.304;12.840;2022-12-11T03:07:52;13.95;;;8.90;;
25045;SDS011;13044;49.304;12.840;2022-12-11T03:10:19;9.50;;;6.40;;
25045;SDS011;13044;49.304;12.840;2022-12-11T03:12:47;10.48;;;6.47;;
25045;SDS011;13044;49.304;12.840;2022-12-11T03:15:19;12.52;;;6.75;;
25045;SDS011;13044;49.304;12.840;2022-12-11T03:18:05;17.05;;;9.15;;
25045;SDS011;13044;49.304;12.840;2022-12-11T03:25:56;14.02;;;8.38;;
25045;SDS011;13044;49.304;12.840;2022-12-11T03:28:29;10.90;;;6.93;;
25045;SDS011;13044;49.304;12.840;2022-12-11T03:31:02;12.88;;;7.70;;
25045;SDS011;13044;49.304;12.840;2022-12-11T03:33:35;14.77;;;8.98;;
25045;SDS011;13044;49.304;12.840;2022-12-11T03:36:07;13.95;;;7.53;;
25045;SDS011;13044;49.304;12.840;2022-12-11T03:38:45;10.93;;;6.50;;
25045;SDS011;13044;49.304;12.840;2022-12-11T03:41:19;14.68;;;8.50;;
25045;SDS011;13044;49.304;12.840;2022-12-11T03:43:50;12.30;;;7.47;;
25045;SDS011;13044;49.304;12.840;2022-12-11T03:46:21;18.08;;;10.65;;
25045;SDS011;13044;49.304;12.840;2022-12-11T03:48:53;22.17;;;10.07;;
25045;SDS011;13044;49.304;12.840;2022-12-11T03:51:26;14.20;;;8.10;;
25045;SDS011;13044;49.304;12.840;2022-12-11T03:53:56;13.55;;;7.47;;
25045;SDS011;13044;49.304;12.840;2022-12-11T03:56:23;14.73;;;8.52;;
25045;SDS011;13044;49.304;12.840;2022-12-11T03:58:52;13.75;;;8.43;;
25045;SDS011;13044;49.304;12.840;2022-12-11T04:01:19;11.35;;;7.20;;
25045;SDS011;13044;49.304;12.840;2022-12-11T04:03:46;16.63;;;9.25;;
25045;SDS011;13044;49.304;12.840;2022-12-11T04:06:13;16.90;;;9.60;;
25045;SDS011;13044;49.304;12.840;2022-12-11T04:08:40;12.27;;;7.72;;
25045;SDS011;13044;49.304;12.840;2022-12-11T04:11:06;13.95;;;8.57;;
25045;SDS011;13044;49.304;12.840;2022-12-11T04:13:51;16.35;;;9.25;;
25045;SDS011;13044;49.304;12.840;2022-12-11T04:16:37;17.17;;;9.85;;
25045;SDS011;13044;49.304;12.840;2022-12-11T04:19:04;16.63;;;9.65;;
25045;SDS011;13044;49.304;12.840;2022-12-11T04:21:49;19.75;;;11.20;;
25045;SDS011;13044;49.304;12.840;2022-12-11T04:24:34;18.27;;;10.73;;
25045;SDS011;13044;49.304;12.840;2022-12-11T04:27:01;18.05;;;10.68;;
25045;SDS011;13044;49.304;12.840;2022-12-11T04:29:28;20.42;;;11.20;;
25045;SDS011;13044;49.304;12.840;2022-12-11T04:31:55;19.90;;;11.35;;
25045;SDS011;13044;49.304;12.840;2022-12-11T04:34:22;20.60;;;11.02;;
25045;SDS011;13044;49.304;12.840;2022-12-11T04:36:49;20.73;;;11.73;;
25045;SDS011;13044;49.304;12.840;2022-12-11T04:39:16;18.88;;;11.00;;
25045;SDS011;13044;49.304;12.840;2022-12-11T04:41:43;21.38;;;11.77;;
25045;SDS011;13044;49.304;12.840;2022-12-11T04:44:10;20.90;;;11.48;;
25045;SDS011;13044;49.304;12.840;2022-12-11T04:46:36;18.88;;;11.43;;
25045;SDS011;13044;49.304;12.840;2022-12-11T04:49:03;19.05;;;10.82;;
25045;SDS011;13044;49.304;12.840;2022-12-11T04:51:30;22.50;;;12.77;;
25045;SDS011;13044;49.304;12.840;2022-12-11T04:53:57;15.13;;;8.68;;
25045;SDS011;13044;49.304;12.840;2022-12-11T04:56:24;21.65;;;12.93;;
25045;SDS011;13044;49.304;12.840;2022-12-11T04:58:51;18.20;;;11.02;;
25045;SDS011;13044;49.304;12.840;2022-12-11T05:01:19;23.77;;;13.13;;
25045;SDS011;13044;49.304;12.840;2022-12-11T05:03:48;18.63;;;11.13;;
25045;SDS011;13044;49.304;12.840;2022-12-11T05:06:15;15.90;;;8.70;;
25045;SDS011;13044;49.304;12.840;2022-12-11T05:08:42;19.67;;;11.65;;
25045;SDS011;13044;49.304;12.840;2022-12-11T05:11:11;16.50;;;10.20;;
25045;SDS011;13044;49.304;12.840;2022-12-11T05:13:40;23.42;;;12.77;;
25045;SDS011;13044;49.304;12.840;2022-12-11T05:16:07;11.32;;;6.20;;
25045;SDS011;13044;49.304;12.840;2022-12-11T05:18:36;15.95;;;9.50;;
25045;SDS011;13044;49.304;12.840;2022-12-11T05:21:04;16.25;;;10.70;;
25045;SDS011;13044;49.304;12.840;2022-12-11T05:23:34;17.10;;;9.90;;
25045;SDS011;13044;49.304;12.840;2022-12-11T05:26:06;17.73;;;9.60;;
25045;SDS011;13044;49.304;12.840;2022-12-11T05:28:38;20.42;;;10.88;;
25045;SDS011;13044;49.304;12.840;2022-12-11T05:31:12;18.35;;;10.52;;
25045;SDS011;13044;49.304;12.840;2022-12-11T05:33:45;21.50;;;11.35;;
25045;SDS011;13044;49.304;12.840;2022-12-11T05:36:18;21.10;;;11.90;;
25045;SDS011;13044;49.304;12.840;2022-12-11T05:38:58;19.23;;;11.60;;
25045;SDS011;13044;49.304;12.840;2022-12-11T05:41:27;19.80;;;11.70;;
25045;SDS011;13044;49.304;12.840;2022-12-11T05:43:56;19.08;;;11.13;;
25045;SDS011;13044;49.304;12.840;2022-12-11T05:46:23;19.80;;;11.02;;
25045;SDS011;13044;49.304;12.840;2022-12-11T05:48:54;19.13;;;11.75;;
25045;SDS011;13044;49.304;12.840;2022-12-11T05:51:27;17.75;;;10.43;;
25045;SDS011;13044;49.304;12.840;2022-12-11T05:53:55;12.02;;;7.05;;
25045;SDS011;13044;49.304;12.840;2022-12-11T05:56:24;15.85;;;9.38;;
25045;SDS011;13044;49.304;12.840;2022-12-11T05:58:53;16.48;;;9.80;;
25045;SDS011;13044;49.304;12.840;2022-12-11T06:04:00;16.60;;;8.80;;
25045;SDS011;13044;49.304;12.840;2022-12-11T06:06:27;21.20;;;12.18;;
25045;SDS011;13044;49.304;12.840;2022-12-11T06:08:55;21.88;;;11.77;;
25045;SDS011;13044;49.304;12.840;2022-12-11T06:11:24;16.92;;;9.98;;
25045;SDS011;13044;49.304;12.840;2022-12-11T06:13:53;19.48;;;11.40;;
25045;SDS011;13044;49.304;12.840;2022-12-11T06:16:21;19.25;;;9.90;;
25045;SDS011;13044;49.304;12.840;2022-12-11T06:18:48;14.18;;;7.40;;
25045;SDS011;13044;49.304;12.840;2022-12-11T06:23:55;17.60;;;8.43;;
25045;SDS011;13044;49.304;12.840;2022-12-11T06:26:26;19.42;;;9.80;;
25045;SDS011;13044;49.304;12.840;2022-12-11T06:28:54;23.85;;;12.18;;
25045;SDS011;13044;49.304;12.840;2022-12-11T06:31:20;29.08;;;15.20;;
25045;SDS011;13044;49.304;12.840;2022-12-11T06:33:47;31.95;;;14.75;;
25045;SDS011;13044;49.304;12.840;2022-12-11T06:36:20;20.73;;;11.98;;
25045;SDS011;13044;49.304;12.840;2022-12-11T06:38:48;29.77;;;16.10;;
25045;SDS011;13044;49.304;12.840;2022-12-11T06:41:16;23.40;;;12.88;;
25045;SDS011;13044;49.304;12.840;2022-12-11T06:43:43;25.67;;;13.85;;
25045;SDS011;13044;49.304;12.840;2022-12-11T06:46:17;26.75;;;12.98;;
25045;SDS011;13044;49.304;12.840;2022-12-11T06:48:45;33.90;;;16.42;;
25045;SDS011;13044;49.304;12.840;2022-12-11T06:51:14;27.45;;;14.90;;
25045;SDS011;13044;49.304;12.840;2022-12-11T06:53:44;38.45;;;18.10;;
25045;SDS011;13044;49.304;12.840;2022-12-11T06:56:17;27.90;;;14.35;;
25045;SDS011;13044;49.304;12.840;2022-12-11T06:58:43;26.88;;;13.60;;
25045;SDS011;13044;49.304;12.840;2022-12-11T07:01:20;29.75;;;15.85;;
25045;SDS011;13044;49.304;12.840;2022-12-11T07:03:53;18.90;;;9.65;;
25045;SDS011;13044;49.304;12.840;2022-12-11T07:06:23;22.00;;;12.07;;
25045;SDS011;13044;49.304;12.840;2022-12-11T07:08:52;24.52;;;13.57;;
25045;SDS011;13044;49.304;12.840;2022-12-11T07:11:20;27.77;;;13.70;;
25045;SDS011;13044;49.304;12.840;2022-12-11T07:13:47;25.00;;;14.02;;
25045;SDS011;13044;49.304;12.840;2022-12-11T07:16:15;30.77;;;16.33;;
25045;SDS011;13044;49.304;12.840;2022-12-11T07:18:45;24.52;;;14.02;;
25045;SDS011;13044;49.304;12.840;2022-12-11T07:21:14;23.33;;;12.38;;
25045;SDS011;13044;49.304;12.840;2022-12-11T07:23:41;21.33;;;12.00;;
25045;SDS011;13044;49.304;12.840;2022-12-11T07:26:12;27.58;;;14.90;;
25045;SDS011;13044;49.304;12.840;2022-12-11T07:28:42;24.42;;;13.48;;
25045;SDS011;13044;49.304;12.840;2022-12-11T07:31:13;25.02;;;13.32;;
25045;SDS011;13044;49.304;12.840;2022-12-11T07:33:44;29.42;;;15.88;;
25045;SDS011;13044;49.304;12.840;2022-12-11T07:36:12;29.25;;;15.38;;
25045;SDS011;13044;49.304;12.840;2022-12-11T07:38:40;22.95;;;12.45;;
25045;SDS011;13044;49.304;12.840;2022-12-11T07:41:09;28.58;;;15.25;;
25045;SDS011;13044;49.304;12.840;2022-12-11T07:43:38;28.80;;;15.00;;
25045;SDS011;13044;49.304;12.840;2022-12-11T07:46:08;27.75;;;14.88;;
25045;SDS011;13044;49.304;12.840;2022-12-11T07:48:41;29.77;;;15.77;;
25045;SDS011;13044;49.304;12.840;2022-12-11T07:53:46;28.27;;;15.18;;
25045;SDS011;13044;49.304;12.840;2022-12-11T07:56:15;28.42;;;15.45;;
25045;SDS011;13044;49.304;12.840;2022-12-11T07:58:44;27.75;;;15.68;;
25045;SDS011;13044;49.304;12.840;2022-12-11T08:01:16;25.48;;;14.10;;
25045;SDS011;13044;49.304;12.840;2022-12-11T08:03:49;25.75;;;13.82;;
25045;SDS011;13044;49.304;12.840;2022-12-11T08:06:18;27.02;;;14.20;;
25045;SDS011;13044;49.304;12.840;2022-12-11T08:08:50;28.83;;;14.93;;
25045;SDS011;13044;49.304;12.840;2022-12-11T08:11:18;28.52;;;14.75;;
25045;SDS011;13044;49.304;12.840;2022-12-11T08:13:45;26.00;;;14.23;;
25045;SDS011;13044;49.304;12.840;2022-12-11T08:16:13;25.38;;;13.75;;
25045;SDS011;13044;49.304;12.840;2022-12-11T08:18:41;27.92;;;14.63;;
25045;SDS011;13044;49.304;12.840;2022-12-11T08:21:10;25.40;;;13.95;;
25045;SDS011;13044;49.304;12.840;2022-12-11T08:23:42;26.83;;;14.40;;
25045;SDS011;13044;49.304;12.840;2022-12-11T08:26:10;20.58;;;11.55;;
25045;SDS011;13044;49.304;12.840;2022-12-11T08:28:41;28.00;;;14.90;;
25045;SDS011;13044;49.304;12.840;2022-12-11T08:31:10;27.63;;;15.05;;
25045;SDS011;13044;49.304;12.840;2022-12-11T08:33:39;27.73;;;14.68;;
25045;SDS011;13044;49.304;12.840;2022-12-11T08:36:08;27.35;;;14.07;;
25045;SDS011;13044;49.304;12.840;2022-12-11T08:38:39;19.05;;;10.50;;
25045;SDS011;13044;49.304;12.840;2022-12-11T08:41:13;23.25;;;13.13;;
25045;SDS011;13044;49.304;12.840;2022-12-11T08:43:46;23.50;;;12.82;;
25045;SDS011;13044;49.304;12.840;2022-12-11T08:46:13;24.73;;;13.27;;
25045;SDS011;13044;49.304;12.840;2022-12-11T08:48:41;21.85;;;12.63;;
25045;SDS011;13044;49.304;12.840;2022-12-11T08:51:13;22.52;;;13.60;;
25045;SDS011;13044;49.304;12.840;2022-12-11T08:53:42;25.33;;;14.18;;
25045;SDS011;13044;49.304;12.840;2022-12-11T08:56:10;29.50;;;14.43;;
25045;SDS011;13044;49.304;12.840;2022-12-11T08:58:39;24.58;;;13.73;;
25045;SDS011;13044;49.304;12.840;2022-12-11T09:03:40;24.95;;;13.80;;
25045;SDS011;13044;49.304;12.840;2022-12-11T09:06:08;29.08;;;16.45;;
25045;SDS011;13044;49.304;12.840;2022-12-11T09:08:38;31.20;;;16.30;;
25045;SDS011;13044;49.304;12.840;2022-12-11T09:11:07;29.77;;;16.30;;
25045;SDS011;13044;49.304;12.840;2022-12-11T09:13:37;22.85;;;12.52;;
25045;SDS011;13044;49.304;12.840;2022-12-11T09:16:06;27.00;;;15.25;;
25045;SDS011;13044;49.304;12.840;2022-12-11T09:18:37;28.13;;;15.18;;
25045;SDS011;13044;49.304;12.840;2022-12-11T09:21:09;23.50;;;12.98;;
25045;SDS011;13044;49.304;12.840;2022-12-11T09:23:38;26.42;;;14.27;;
25045;SDS011;13044;49.304;12.840;2022-12-11T09:26:07;24.58;;;13.55;;
25045;SDS011;13044;49.304;12.840;2022-12-11T09:28:38;25.08;;;13.23;;
25045;SDS011;13044;49.304;12.840;2022-12-11T09:31:12;28.42;;;15.18;;
25045;SDS011;13044;49.304;12.840;2022-12-11T09:33:43;29.08;;;16.65;;
25045;SDS011;13044;49.304;12.840;2022-12-11T09:36:12;24.45;;;14.20;;
25045;SDS011;13044;49.304;12.840;2022-12-11T09:38:38;23.50;;;13.55;;
25045;SDS011;13044;49.304;12.840;2022-12-11T09:41:15;17.40;;;10.95;;
25045;SDS011;13044;49.304;12.840;2022-12-11T09:43:49;16.05;;;9.05;;
25045;SDS011;13044;49.304;12.840;2022-12-11T09:46:42;14.23;;;9.13;;
25045;SDS011;13044;49.304;12.840;2022-12-11T09:54:50;15.02;;;9.48;;
25045;SDS011;13044;49.304;12.840;2022-12-11T09:57:32;18.02;;;10.40;;
25045;SDS011;13044;49.304;12.840;2022-12-11T10:03:39;40.75;;;22.27;;
25045;SDS011;13044;49.304;12.840;2022-12-11T10:16:44;28.50;;;15.02;;
25045;SDS011;13044;49.304;12.840;2022-12-11T10:19:21;22.20;;;12.27;;
25045;SDS011;13044;49.304;12.840;2022-12-11T10:21:52;24.13;;;13.43;;
25045;SDS011;13044;49.304;12.840;2022-12-11T10:24:30;21.15;;;12.02;;
25045;SDS011;13044;49.304;12.840;2022-12-11T10:27:29;17.83;;;10.98;;
25045;SDS011;13044;49.304;12.840;2022-12-11T10:33:22;17.30;;;10.43;;
25045;SDS011;13044;49.304;12.840;2022-12-11T10:35:52;19.55;;;9.77;;
25045;SDS011;13044;49.304;12.840;2022-12-11T10:41:02;17.00;;;10.25;;
25045;SDS011;13044;49.304;12.840;2022-12-11T10:43:37;14.07;;;9.15;;
25045;SDS011;13044;49.304;12.840;2022-12-11T10:51:23;18.17;;;11.25;;
25045;SDS011;13044;49.304;12.840;2022-12-11T10:53:59;18.38;;;10.57;;
25045;SDS011;13044;49.304;12.840;2022-12-11T10:56:33;21.08;;;11.68;;
25045;SDS011;13044;49.304;12.840;2022-12-11T10:59:02;21.45;;;12.00;;
25045;SDS011;13044;49.304;12.840;2022-12-11T11:01:30;22.58;;;12.45;;
25045;SDS011;13044;49.304;12.840;2022-12-11T11:04:14;19.27;;;11.27;;
25045;SDS011;13044;49.304;12.840;2022-12-11T11:06:46;21.85;;;12.60;;
25045;SDS011;13044;49.304;12.840;2022-12-11T11:09:28;19.83;;;11.82;;
25045;SDS011;13044;49.304;12.840;2022-12-11T11:12:02;20.70;;;12.00;;
25045;SDS011;13044;49.304;12.840;2022-12-11T11:14:33;23.45;;;12.88;;
25045;SDS011;13044;49.304;12.840;2022-12-11T11:17:00;22.80;;;12.73;;
25045;SDS011;13044;49.304;12.840;2022-12-11T11:19:31;22.83;;;12.85;;
25045;SDS011;13044;49.304;12.840;2022-12-11T11:22:04;19.70;;;12.55;;
25045;SDS011;13044;49.304;12.840;2022-12-11T11:24:42;19.88;;;12.35;;
25045;SDS011;13044;49.304;12.840;2022-12-11T11:27:33;22.73;;;12.95;;
25045;SDS011;13044;49.304;12.840;2022-12-11T11:30:32;15.95;;;9.43;;
25045;SDS011;13044;49.304;12.840;2022-12-11T11:33:11;20.08;;;11.10;;
25045;SDS011;13044;49.304;12.840;2022-12-11T11:38:25;17.92;;;10.80;;
25045;SDS011;13044;49.304;12.840;2022-12-11T11:43:50;28.92;;;16.17;;
25045;SDS011;13044;49.304;12.840;2022-12-11T11:49:06;42.60;;;21.70;;
25045;SDS011;13044;49.304;12.840;2022-12-11T11:52:13;28.58;;;16.23;;
25045;SDS011;13044;49.304;12.840;2022-12-11T11:57:28;35.60;;;18.17;;
25045;SDS011;13044;49.304;12.840;2022-12-11T12:00:06;27.08;;;14.80;;
25045;SDS011;13044;49.304;12.840;2022-12-11T12:03:03;27.05;;;14.85;;
25045;SDS011;13044;49.304;12.840;2022-12-11T12:14:13;17.00;;;10.90;;
25045;SDS011;13044;49.304;12.840;2022-12-11T12:20:10;18.08;;;11.45;;
25045;SDS011;13044;49.304;12.840;2022-12-11T12:31:29;19.60;;;12.30;;
25045;SDS011;13044;49.304;12.840;2022-12-11T12:45:58;16.17;;;10.02;;
25045;SDS011;13044;49.304;12.840;2022-12-11T12:51:04;15.10;;;8.95;;
25045;SDS011;13044;49.304;12.840;2022-12-11T12:53:33;13.50;;;9.63;;
25045;SDS011;13044;49.304;12.840;2022-12-11T12:56:02;17.20;;;9.10;;
25045;SDS011;13044;49.304;12.840;2022-12-11T13:01:14;13.13;;;8.48;;
25045;SDS011;13044;49.304;12.840;2022-12-11T13:03:55;14.52;;;9.80;;
25045;SDS011;13044;49.304;12.840;2022-12-11T13:06:32;18.98;;;10.60;;
25045;SDS011;13044;49.304;12.840;2022-12-11T13:09:18;12.52;;;8.15;;
25045;SDS011;13044;49.304;12.840;2022-12-11T13:11:51;15.90;;;9.48;;
25045;SDS011;13044;49.304;12.840;2022-12-11T13:14:25;16.17;;;9.65;;
25045;SDS011;13044;49.304;12.840;2022-12-11T13:17:04;32.88;;;15.13;;
25045;SDS011;13044;49.304;12.840;2022-12-11T13:19:49;18.73;;;9.93;;
25045;SDS011;13044;49.304;12.840;2022-12-11T13:22:45;26.58;;;13.18;;
25045;SDS011;13044;49.304;12.840;2022-12-11T13:25:19;21.17;;;10.43;;
25045;SDS011;13044;49.304;12.840;2022-12-11T13:28:06;15.35;;;9.35;;
25045;SDS011;13044;49.304;12.840;2022-12-11T13:30:59;17.83;;;10.77;;
25045;SDS011;13044;49.304;12.840;2022-12-11T13:33:54;17.52;;;10.82;;
25045;SDS011;13044;49.304;12.840;2022-12-11T13:36:30;21.25;;;11.27;;
25045;SDS011;13044;49.304;12.840;2022-12-11T13:39:02;21.77;;;12.02;;
25045;SDS011;13044;49.304;12.840;2022-12-11T13:41:35;16.83;;;10.45;;
25045;SDS011;13044;49.304;12.840;2022-12-11T13:44:04;38.95;;;19.10;;
25045;SDS011;13044;49.304;12.840;2022-12-11T13:46:33;14.27;;;8.15;;
25045;SDS011;13044;49.304;12.840;2022-12-11T13:49:03;14.93;;;9.38;;
25045;SDS011;13044;49.304;12.840;2022-12-11T13:51:33;12.95;;;8.40;;
25045;SDS011;13044;49.304;12.840;2022-12-11T13:54:03;17.40;;;11.07;;
25045;SDS011;13044;49.304;12.840;2022-12-11T13:56:32;17.20;;;10.38;;
25045;SDS011;13044;49.304;12.840;2022-12-11T13:58:59;21.60;;;11.88;;
25045;SDS011;13044;49.304;12.840;2022-12-11T14:01:28;12.80;;;7.50;;
25045;SDS011;13044;49.304;12.840;2022-12-11T14:04:00;20.30;;;10.95;;
25045;SDS011;13044;49.304;12.840;2022-12-11T14:06:33;18.80;;;11.00;;
25045;SDS011;13044;49.304;12.840;2022-12-11T14:09:03;15.55;;;9.50;;
25045;SDS011;13044;49.304;12.840;2022-12-11T14:11:33;23.95;;;11.63;;
25045;SDS011;13044;49.304;12.840;2022-12-11T14:14:03;49.58;;;17.02;;
25045;SDS011;13044;49.304;12.840;2022-12-11T14:16:40;27.38;;;11.23;;
25045;SDS011;13044;49.304;12.840;2022-12-11T14:19:07;72.07;;;19.45;;
25045;SDS011;13044;49.304;12.840;2022-12-11T14:21:36;34.15;;;12.02;;
25045;SDS011;13044;49.304;12.840;2022-12-11T14:24:03;21.30;;;9.85;;
25045;SDS011;13044;49.304;12.840;2022-12-11T14:26:32;15.25;;;8.75;;
25045;SDS011;13044;49.304;12.840;2022-12-11T14:29:04;24.67;;;11.27;;
25045;SDS011;13044;49.304;12.840;2022-12-11T14:31:36;42.30;;;17.92;;
25045;SDS011;13044;49.304;12.840;2022-12-11T14:34:16;47.42;;;19.08;;
25045;SDS011;13044;49.304;12.840;2022-12-11T14:36:49;31.13;;;13.35;;
25045;SDS011;13044;49.304;12.840;2022-12-11T14:42:00;15.77;;;8.65;;
25045;SDS011;13044;49.304;12.840;2022-12-11T14:45:04;14.98;;;8.93;;
25045;SDS011;13044;49.304;12.840;2022-12-11T14:47:44;10.95;;;7.05;;
25045;SDS011;13044;49.304;12.840;2022-12-11T14:50:20;15.15;;;7.72;;
25045;SDS011;13044;49.304;12.840;2022-12-11T14:53:08;11.20;;;7.30;;
25045;SDS011;13044;49.304;12.840;2022-12-11T14:55:42;11.25;;;6.78;;
25045;SDS011;13044;49.304;12.840;2022-12-11T14:58:14;11.65;;;7.63;;
25045;SDS011;13044;49.304;12.840;2022-12-11T15:03:32;10.50;;;6.82;;
25045;SDS011;13044;49.304;12.840;2022-12-11T15:06:02;15.70;;;8.63;;
25045;SDS011;13044;49.304;12.840;2022-12-11T15:08:52;12.98;;;7.80;;
25045;SDS011;13044;49.304;12.840;2022-12-11T15:11:19;9.07;;;5.95;;
25045;SDS011;13044;49.304;12.840;2022-12-11T15:13:52;17.10;;;9.30;;
25045;SDS011;13044;49.304;12.840;2022-12-11T15:16:23;16.35;;;9.43;;
25045;SDS011;13044;49.304;12.840;2022-12-11T15:18:53;21.17;;;11.57;;
25045;SDS011;13044;49.304;12.840;2022-12-11T15:21:28;17.10;;;9.80;;
25045;SDS011;13044;49.304;12.840;2022-12-11T15:23:59;15.05;;;8.07;;
25045;SDS011;13044;49.304;12.840;2022-12-11T15:26:36;15.10;;;8.75;;
25045;SDS011;13044;49.304;12.840;2022-12-11T15:31:59;14.77;;;8.57;;
25045;SDS011;13044;49.304;12.840;2022-12-11T15:34:43;11.20;;;7.00;;
25045;SDS011;13044;49.304;12.840;2022-12-11T15:39:45;14.15;;;8.57;;
25045;SDS011;13044;49.304;12.840;2022-12-11T15:42:12;12.93;;;8.52;;
25045;SDS011;13044;49.304;12.840;2022-12-11T15:44:59;13.35;;;8.43;;
25045;SDS011;13044;49.304;12.840;2022-12-11T15:47:27;13.20;;;8.15;;
25045;SDS011;13044;49.304;12.840;2022-12-11T15:49:57;11.80;;;8.07;;
25045;SDS011;13044;49.304;12.840;2022-12-11T15:52:27;11.85;;;7.53;;
25045;SDS011;13044;49.304;12.840;2022-12-11T15:54:54;11.98;;;8.10;;
25045;SDS011;13044;49.304;12.840;2022-12-11T15:57:21;14.95;;;7.97;;
25045;SDS011;13044;49.304;12.840;2022-12-11T15:59:50;14.27;;;8.80;;
25045;SDS011;13044;49.304;12.840;2022-12-11T16:02:19;17.05;;;10.02;;
25045;SDS011;13044;49.304;12.840;2022-12-11T16:04:46;13.15;;;8.90;;
25045;SDS011;13044;49.304;12.840;2022-12-11T16:07:17;11.48;;;7.53;;
25045;SDS011;13044;49.304;12.840;2022-12-11T16:09:49;13.25;;;8.25;;
25045;SDS011;13044;49.304;12.840;2022-12-11T16:12:17;12.35;;;8.25;;
25045;SDS011;13044;49.304;12.840;2022-12-11T16:14:44;17.67;;;10.43;;
25045;SDS011;13044;49.304;12.840;2022-12-11T16:17:12;14.20;;;8.88;;
25045;SDS011;13044;49.304;12.840;2022-12-11T16:19:41;12.95;;;7.70;;
25045;SDS011;13044;49.304;12.840;2022-12-11T16:22:09;12.27;;;7.63;;
25045;SDS011;13044;49.304;12.840;2022-12-11T16:24:38;14.20;;;8.43;;
25045;SDS011;13044;49.304;12.840;2022-12-11T16:27:05;14.15;;;8.63;;
25045;SDS011;13044;49.304;12.840;2022-12-11T16:29:35;13.10;;;7.68;;
25045;SDS011;13044;49.304;12.840;2022-12-11T16:32:05;12.75;;;8.32;;
25045;SDS011;13044;49.304;12.840;2022-12-11T16:34:34;9.73;;;6.03;;
25045;SDS011;13044;49.304;12.840;2022-12-11T16:37:01;7.75;;;5.10;;
25045;SDS011;13044;49.304;12.840;2022-12-11T16:39:33;11.73;;;7.32;;
25045;SDS011;13044;49.304;12.840;2022-12-11T16:42:05;12.27;;;7.57;;
25045;SDS011;13044;49.304;12.840;2022-12-11T16:44:32;10.18;;;6.72;;